Accueil
METAR-TAF:

METAR-TAF

Aéroports :

Wake Island, États-Unis

latitude: 19-17N, longitude: 166-39E, altitude: 4 m

Observation

Le bulletin a été fait il y a 41 minutes, à 14:30 UTC
Vent 22 kt de nord/nord-est
Température 25°C
Humidité 69%
Pression 1016 hPa
Visibilité: 8.0 km
Quelques nuages à une hauteur de 2400 ft
Nuages épars à une hauteur de 2900 ft
Nuages fragmentés à une hauteur de 6500 ft
pluie faible

METAR: PWAK 121430Z AUTO 03022KT 5SM -RA FEW024 SCT029 BKN065 25/19 A3000 RMK AO2 RAB30 SLP165

Heure: 03:11 (15:11 UTC)

Prévision

Le bulletin a été fait il y a 1 heure et 11 minutes, à 14:00 UTC
Prévision valable du 12 à 14 UTC au 13 à 20 UTC
Vent 22 kt de nord-est
Visibilité 10 km ou plus
Quelques nuages à une hauteur de 3000 ft
Ciel couvert à une hauteur de 7000 ft

TAF: PWAK 121400Z 1214/1320 05022KT 9999 FEW030 OVC070 QNH2992INS TX29/1311Z TN23/1223Z FOR MIL USE ONLY

Observations et prévisions météorologiques de plus de 4000 aéroports (messages METAR et TAF).

Les stations disponibles sont représentées par des disques jaunes et rouges sur la carte.

Passer la souris dessus pour voir le nom de la station.

Cliquer dessus pour voir les observations et prévisions météorologiques.

Pour changer de carte: cliquez sur les boutons verts avec une croix noire pour zoomer, sur le bouton vert avec un tiret pour effectuer un zoom arrière, ou sur les flèches vertes pour les cartes adjacentes.


METAR-TAF: